旭川空港の過去48時間の天気

旭川空港 (Asahikawa (Civil))

現在時刻: 10/14 11:13 JST (10/14 02:13 UTC) 以下の時間は現地時間です。

過去48時間のMETAR気象情報
時間 風向 風速(m/s) 視程 気温(℃) 湿度(%) 気圧(hPa) 天気現象
14 10:00 3 10km以上 8 71 1022
14 09:00 3 10km以上 7 70 1023
14 08:00 2 10km以上 4 81 1024
14 07:00 南南西 2 10km以上 1 86 1024
14 06:40 南南西 2 10km以上 0 93 1023
13 20:00 南東 3 10km以上 1 80 1021
13 19:00 西 1 10km以上 4 70 1020
13 18:00 北北東 2 10km以上 7 57 1019
13 17:00 6 10km以上 7 61 1018
13 16:00 北北西 8 10km以上 9 53 1017
13 15:00 7 10km以上 10 46 1015
13 14:00 8 10km以上 11 47 1014
13 13:00 9 10km以上 11 47 1013
13 12:00 11 10km以上 10 54 1012
13 11:00 8 10km以上 10 62 1011
13 10:00 北北東 7 10km以上 9 62 1011
13 09:00 北北東 9 10km以上 8 71 1010
13 08:00 北北東 12 10km以上 8 71 1010
13 07:18 11 10km以上 8 71 1009
13 07:00 10 10km以上 8 71 1009
13 06:40 9 10km以上 8 76 1010
12 20:00 北北西 5 10km以上 8 81 1019
12 19:00 北北西 5 10km以上 9 81 1019
12 18:00 6 10km以上 10 76 1018
12 17:00 北北西 4 10km以上 11 76 1018
12 16:00 4 10km以上 12 77 1018
12 15:00 3 10km以上 13 72 1018
12 14:00 北北西 5 10km以上 13 72 1018
12 13:00 北西 5 10km以上 13 72 1019
12 12:00 北西 4 10km以上 13 67 1019
RJEC 140100Z 35005KT 320V030 9999 FEW030 SCT150 BKN/// 08/03 Q1022
RJEC 140000Z 17006KT 150V210 9999 FEW030 SCT150 BKN/// 07/02 Q1023
RJEC 132300Z 18003KT 150V220 9999 FEW002 SCT110 04/01 Q1024
RJEC 132200Z 20004KT 170V230 9999 FEW001 01/M01 Q1024
RJEC 132140Z 21004KT 9999 FEW001 00/M01 Q1023 RMK 1ST001 A3023
RJEC 131100Z 14005KT 9999 FEW020 01/M02 Q1021
RJEC 131000Z 28002KT 9999 FEW020 04/M01 Q1020
RJEC 130900Z 02003KT 9999 FEW020 07/M01 Q1019
RJEC 130800Z 36011KT 9999 FEW020 07/M00 Q1018
RJEC 130700Z 34015KT 9999 FEW030 09/00 Q1017
RJEC 130600Z 01014KT 9999 FEW030 10/M01 Q1015
RJEC 130500Z 36015KT 9999 FEW030 11/00 Q1014
RJEC 130400Z 01018KT 9999 FEW030 11/M00 Q1013
RJEC 130300Z 36021KT 9999 FEW030 SCT040 10/01 Q1012
RJEC 130200Z 36015KT 9999 FEW020 BKN030 10/03 Q1011
RJEC 130100Z 02014KT 9999 FEW020 BKN030 BKN/// 09/02 Q1011
RJEC 130000Z 02018KT 9999 FEW015 SCT030 BKN150 08/03 Q1010
RJEC 122300Z 02023G34KT 9999 FEW010 SCT030 BKN150 08/03 Q1010
RJEC 122218Z 01021G31KT 9999 FEW010 SCT030 BKN160 08/03 Q1009 RMK 1ST010 3CU030 5AC160 A2982
RJEC 122200Z 01020KT 9999 FEW010 SCT030 BKN160 08/03 Q1009
RJEC 122140Z 01018KT 9999 FEW008 SCT030 BKN160 08/04 Q1010 RMK 1ST008 3CU030 5AC160 A2983
RJEC 121100Z 34010KT 9999 FEW020 SCT150 BKN/// 08/05 Q1019
RJEC 121000Z 34009KT 9999 FEW020 SCT050 BKN150 09/06 Q1019
RJEC 120900Z 35011KT 9999 FEW025 SCT050 BKN150 10/06 Q1018
RJEC 120800Z 33007KT 9999 FEW030 SCT160 BKN/// 11/07 Q1018
RJEC 120700Z 35007KT 9999 FEW030 SCT130 BKN/// 12/08 Q1018
RJEC 120600Z 35006KT 9999 FEW030 SCT120 BKN160 13/08 Q1018
RJEC 120500Z 33009KT 9999 FEW030 SCT130 BKN/// 13/08 Q1018
RJEC 120400Z 32009KT 9999 FEW030 SCT160 BKN180 13/08 Q1019
RJEC 120300Z 32008KT 9999 FEW030 SCT170 BKN/// 13/07 Q1019